sensor_id;sensor_type;location;lat;lon;timestamp;temperature;humidity
14008;DHT22;61651;45.508;12.232;2023-05-07T00:02:30;20.30;99.90
14008;DHT22;61651;45.508;12.232;2023-05-07T00:05:34;20.30;99.90
14008;DHT22;61651;45.508;12.232;2023-05-07T00:08:36;20.20;99.90
14008;DHT22;61651;45.508;12.232;2023-05-07T00:11:38;20.20;99.90
14008;DHT22;61651;45.508;12.232;2023-05-07T00:14:41;20.20;99.90
14008;DHT22;61651;45.508;12.232;2023-05-07T00:17:43;20.20;99.90
14008;DHT22;61651;45.508;12.232;2023-05-07T00:20:46;20.10;99.90
14008;DHT22;61651;45.508;12.232;2023-05-07T00:23:48;20.10;99.90
14008;DHT22;61651;45.508;12.232;2023-05-07T00:26:50;20.10;99.90
14008;DHT22;61651;45.508;12.232;2023-05-07T00:29:53;20.00;99.90
14008;DHT22;61651;45.508;12.232;2023-05-07T00:32:55;20.00;99.90
14008;DHT22;61651;45.508;12.232;2023-05-07T00:35:58;19.90;99.90
14008;DHT22;61651;45.508;12.232;2023-05-07T00:39:01;19.90;99.90
14008;DHT22;61651;45.508;12.232;2023-05-07T00:45:05;19.90;99.90
14008;DHT22;61651;45.508;12.232;2023-05-07T00:48:08;19.90;99.90
14008;DHT22;61651;45.508;12.232;2023-05-07T00:51:11;19.90;99.90
14008;DHT22;61651;45.508;12.232;2023-05-07T00:54:14;19.90;99.90
14008;DHT22;61651;45.508;12.232;2023-05-07T00:57:16;19.90;99.90
14008;DHT22;61651;45.508;12.232;2023-05-07T01:00:18;19.90;99.90
14008;DHT22;61651;45.508;12.232;2023-05-07T01:03:21;19.80;99.90
14008;DHT22;61651;45.508;12.232;2023-05-07T01:06:25;19.80;99.90
14008;DHT22;61651;45.508;12.232;2023-05-07T01:09:28;19.80;99.90
14008;DHT22;61651;45.508;12.232;2023-05-07T01:12:31;19.80;99.90
14008;DHT22;61651;45.508;12.232;2023-05-07T01:15:33;19.70;99.90
14008;DHT22;61651;45.508;12.232;2023-05-07T01:18:35;19.70;99.90
14008;DHT22;61651;45.508;12.232;2023-05-07T01:21:38;19.70;99.90
14008;DHT22;61651;45.508;12.232;2023-05-07T01:24:42;19.70;99.90
14008;DHT22;61651;45.508;12.232;2023-05-07T01:27:44;19.70;99.90
14008;DHT22;61651;45.508;12.232;2023-05-07T01:30:49;19.60;99.90
14008;DHT22;61651;45.508;12.232;2023-05-07T01:33:52;19.60;99.90
14008;DHT22;61651;45.508;12.232;2023-05-07T01:36:54;19.60;99.90
14008;DHT22;61651;45.508;12.232;2023-05-07T01:40:01;19.50;99.90
14008;DHT22;61651;45.508;12.232;2023-05-07T01:43:03;19.50;99.90
14008;DHT22;61651;45.508;12.232;2023-05-07T01:46:06;19.50;99.90
14008;DHT22;61651;45.508;12.232;2023-05-07T01:49:10;19.50;99.90
14008;DHT22;61651;45.508;12.232;2023-05-07T01:52:13;19.50;99.90
14008;DHT22;61651;45.508;12.232;2023-05-07T01:55:16;19.40;99.90
14008;DHT22;61651;45.508;12.232;2023-05-07T01:58:18;19.40;99.90
14008;DHT22;61651;45.508;12.232;2023-05-07T02:01:20;19.40;99.90
14008;DHT22;61651;45.508;12.232;2023-05-07T02:04:22;19.30;99.90
14008;DHT22;61651;45.508;12.232;2023-05-07T02:07:25;19.30;99.90
14008;DHT22;61651;45.508;12.232;2023-05-07T02:10:28;19.30;99.90
14008;DHT22;61651;45.508;12.232;2023-05-07T02:13:32;19.40;99.90
14008;DHT22;61651;45.508;12.232;2023-05-07T02:16:34;19.40;99.90
14008;DHT22;61651;45.508;12.232;2023-05-07T02:19:36;19.30;99.90
14008;DHT22;61651;45.508;12.232;2023-05-07T02:22:38;19.30;99.90
14008;DHT22;61651;45.508;12.232;2023-05-07T02:25:42;19.30;99.90
14008;DHT22;61651;45.508;12.232;2023-05-07T02:28:44;19.30;99.90
14008;DHT22;61651;45.508;12.232;2023-05-07T02:31:45;19.30;99.90
14008;DHT22;61651;45.508;12.232;2023-05-07T02:34:50;19.30;99.90
14008;DHT22;61651;45.508;12.232;2023-05-07T02:37:52;19.30;99.90
14008;DHT22;61651;45.508;12.232;2023-05-07T02:40:56;19.30;99.90
14008;DHT22;61651;45.508;12.232;2023-05-07T02:43:58;19.20;99.90
14008;DHT22;61651;45.508;12.232;2023-05-07T02:47:00;19.20;99.90
14008;DHT22;61651;45.508;12.232;2023-05-07T02:50:02;19.20;99.90
14008;DHT22;61651;45.508;12.232;2023-05-07T02:53:04;19.10;99.90
14008;DHT22;61651;45.508;12.232;2023-05-07T02:56:07;19.10;99.90
14008;DHT22;61651;45.508;12.232;2023-05-07T02:59:09;19.10;99.90
14008;DHT22;61651;45.508;12.232;2023-05-07T03:02:12;19.00;99.90
14008;DHT22;61651;45.508;12.232;2023-05-07T03:05:13;19.00;99.90
14008;DHT22;61651;45.508;12.232;2023-05-07T03:08:15;19.00;99.90
14008;DHT22;61651;45.508;12.232;2023-05-07T03:11:19;18.90;99.90
14008;DHT22;61651;45.508;12.232;2023-05-07T03:14:21;18.90;99.90
14008;DHT22;61651;45.508;12.232;2023-05-07T03:17:23;18.90;99.90
14008;DHT22;61651;45.508;12.232;2023-05-07T03:20:25;18.80;99.90
14008;DHT22;61651;45.508;12.232;2023-05-07T03:23:27;18.80;99.90
14008;DHT22;61651;45.508;12.232;2023-05-07T03:26:30;18.80;99.90
14008;DHT22;61651;45.508;12.232;2023-05-07T03:29:32;18.80;99.90
14008;DHT22;61651;45.508;12.232;2023-05-07T03:32:34;18.80;99.90
14008;DHT22;61651;45.508;12.232;2023-05-07T03:35:36;18.70;99.90
14008;DHT22;61651;45.508;12.232;2023-05-07T03:38:38;18.70;99.90
14008;DHT22;61651;45.508;12.232;2023-05-07T03:41:42;18.70;99.90
14008;DHT22;61651;45.508;12.232;2023-05-07T03:44:44;18.60;99.90
14008;DHT22;61651;45.508;12.232;2023-05-07T03:47:46;18.70;99.90
14008;DHT22;61651;45.508;12.232;2023-05-07T03:50:48;18.70;99.90
14008;DHT22;61651;45.508;12.232;2023-05-07T03:53:50;18.70;99.90
14008;DHT22;61651;45.508;12.232;2023-05-07T03:56:54;18.60;99.90
14008;DHT22;61651;45.508;12.232;2023-05-07T03:59:56;18.60;99.90
14008;DHT22;61651;45.508;12.232;2023-05-07T04:02:58;18.60;99.90
14008;DHT22;61651;45.508;12.232;2023-05-07T04:06:00;18.60;99.90
14008;DHT22;61651;45.508;12.232;2023-05-07T04:09:02;18.50;99.90
14008;DHT22;61651;45.508;12.232;2023-05-07T04:12:06;18.50;99.90
14008;DHT22;61651;45.508;12.232;2023-05-07T04:15:09;18.50;99.90
14008;DHT22;61651;45.508;12.232;2023-05-07T04:18:11;18.50;99.90
14008;DHT22;61651;45.508;12.232;2023-05-07T04:21:17;18.60;99.90
14008;DHT22;61651;45.508;12.232;2023-05-07T04:24:19;18.60;99.90
14008;DHT22;61651;45.508;12.232;2023-05-07T04:27:22;18.60;99.90
14008;DHT22;61651;45.508;12.232;2023-05-07T04:30:25;18.60;99.90
14008;DHT22;61651;45.508;12.232;2023-05-07T04:33:27;18.60;99.90
14008;DHT22;61651;45.508;12.232;2023-05-07T04:36:29;18.70;99.90
14008;DHT22;61651;45.508;12.232;2023-05-07T04:39:33;18.70;99.90
14008;DHT22;61651;45.508;12.232;2023-05-07T04:42:37;18.70;99.90
14008;DHT22;61651;45.508;12.232;2023-05-07T04:45:39;18.70;99.90
14008;DHT22;61651;45.508;12.232;2023-05-07T04:48:41;18.70;99.90
14008;DHT22;61651;45.508;12.232;2023-05-07T04:51:44;18.80;99.90
14008;DHT22;61651;45.508;12.232;2023-05-07T04:54:46;18.80;99.90
14008;DHT22;61651;45.508;12.232;2023-05-07T04:57:50;18.90;99.90
14008;DHT22;61651;45.508;12.232;2023-05-07T05:00:52;18.90;99.90
14008;DHT22;61651;45.508;12.232;2023-05-07T05:03:54;18.90;99.90
14008;DHT22;61651;45.508;12.232;2023-05-07T05:06:56;19.00;99.90
14008;DHT22;61651;45.508;12.232;2023-05-07T05:09:58;19.00;99.90
14008;DHT22;61651;45.508;12.232;2023-05-07T05:13:01;19.10;99.90
14008;DHT22;61651;45.508;12.232;2023-05-07T05:16:04;19.10;99.90
14008;DHT22;61651;45.508;12.232;2023-05-07T05:19:06;19.20;99.90
14008;DHT22;61651;45.508;12.232;2023-05-07T05:22:08;19.30;99.90
14008;DHT22;61651;45.508;12.232;2023-05-07T05:25:10;19.30;99.90
14008;DHT22;61651;45.508;12.232;2023-05-07T05:28:13;19.30;99.90
14008;DHT22;61651;45.508;12.232;2023-05-07T05:31:16;19.40;99.90
14008;DHT22;61651;45.508;12.232;2023-05-07T05:34:18;19.40;99.90
14008;DHT22;61651;45.508;12.232;2023-05-07T05:37:20;19.50;99.90
14008;DHT22;61651;45.508;12.232;2023-05-07T05:40:22;19.60;99.90
14008;DHT22;61651;45.508;12.232;2023-05-07T05:43:25;19.70;99.90
14008;DHT22;61651;45.508;12.232;2023-05-07T05:46:27;19.70;99.90
14008;DHT22;61651;45.508;12.232;2023-05-07T05:49:29;19.80;99.90
14008;DHT22;61651;45.508;12.232;2023-05-07T05:52:31;19.80;99.90
14008;DHT22;61651;45.508;12.232;2023-05-07T05:55:33;19.90;99.90
14008;DHT22;61651;45.508;12.232;2023-05-07T05:58:37;20.00;99.90
14008;DHT22;61651;45.508;12.232;2023-05-07T06:01:38;20.10;99.90
14008;DHT22;61651;45.508;12.232;2023-05-07T06:04:41;20.20;99.90
14008;DHT22;61651;45.508;12.232;2023-05-07T06:07:43;20.20;99.90
14008;DHT22;61651;45.508;12.232;2023-05-07T06:10:45;20.30;99.90
14008;DHT22;61651;45.508;12.232;2023-05-07T06:13:48;20.40;99.90
14008;DHT22;61651;45.508;12.232;2023-05-07T06:16:50;20.50;99.90
14008;DHT22;61651;45.508;12.232;2023-05-07T06:19:52;20.50;99.90
14008;DHT22;61651;45.508;12.232;2023-05-07T06:22:54;20.50;99.90
14008;DHT22;61651;45.508;12.232;2023-05-07T06:25:56;20.60;99.90
14008;DHT22;61651;45.508;12.232;2023-05-07T06:29:00;20.70;99.90
14008;DHT22;61651;45.508;12.232;2023-05-07T06:32:06;20.80;99.90
14008;DHT22;61651;45.508;12.232;2023-05-07T06:35:09;20.90;99.90
14008;DHT22;61651;45.508;12.232;2023-05-07T06:38:11;20.90;99.90
14008;DHT22;61651;45.508;12.232;2023-05-07T06:41:13;21.00;99.90
14008;DHT22;61651;45.508;12.232;2023-05-07T06:44:16;21.10;99.90
14008;DHT22;61651;45.508;12.232;2023-05-07T06:47:18;21.10;99.90
14008;DHT22;61651;45.508;12.232;2023-05-07T06:50:20;21.20;99.90
14008;DHT22;61651;45.508;12.232;2023-05-07T06:53:22;21.30;99.90
14008;DHT22;61651;45.508;12.232;2023-05-07T06:56:24;21.40;99.90
14008;DHT22;61651;45.508;12.232;2023-05-07T06:59:28;21.40;99.90
14008;DHT22;61651;45.508;12.232;2023-05-07T07:02:30;21.50;99.90
14008;DHT22;61651;45.508;12.232;2023-05-07T07:05:32;21.60;99.90
14008;DHT22;61651;45.508;12.232;2023-05-07T07:08:34;21.70;99.90
14008;DHT22;61651;45.508;12.232;2023-05-07T07:11:36;21.70;99.90
14008;DHT22;61651;45.508;12.232;2023-05-07T07:14:39;21.80;99.90
14008;DHT22;61651;45.508;12.232;2023-05-07T07:17:41;22.00;99.90
14008;DHT22;61651;45.508;12.232;2023-05-07T07:20:43;22.10;99.90
14008;DHT22;61651;45.508;12.232;2023-05-07T07:23:45;22.20;99.90
14008;DHT22;61651;45.508;12.232;2023-05-07T07:26:48;22.20;99.90
14008;DHT22;61651;45.508;12.232;2023-05-07T07:29:51;22.30;99.90
14008;DHT22;61651;45.508;12.232;2023-05-07T07:32:53;22.40;99.90
14008;DHT22;61651;45.508;12.232;2023-05-07T07:35:55;22.50;99.90
14008;DHT22;61651;45.508;12.232;2023-05-07T07:38:57;22.50;99.90
14008;DHT22;61651;45.508;12.232;2023-05-07T07:42:00;22.60;99.90
14008;DHT22;61651;45.508;12.232;2023-05-07T07:45:04;22.70;99.90
14008;DHT22;61651;45.508;12.232;2023-05-07T07:48:06;22.70;99.90
14008;DHT22;61651;45.508;12.232;2023-05-07T07:51:08;22.80;99.90
14008;DHT22;61651;45.508;12.232;2023-05-07T07:54:10;22.90;99.90
14008;DHT22;61651;45.508;12.232;2023-05-07T07:57:13;23.00;99.90
14008;DHT22;61651;45.508;12.232;2023-05-07T08:00:17;23.10;99.90
14008;DHT22;61651;45.508;12.232;2023-05-07T08:03:19;23.10;99.90
14008;DHT22;61651;45.508;12.232;2023-05-07T08:06:21;23.20;99.90
14008;DHT22;61651;45.508;12.232;2023-05-07T08:09:23;23.40;99.90
14008;DHT22;61651;45.508;12.232;2023-05-07T08:12:25;23.40;99.90
14008;DHT22;61651;45.508;12.232;2023-05-07T08:15:28;23.50;99.90
14008;DHT22;61651;45.508;12.232;2023-05-07T08:18:31;23.50;99.90
14008;DHT22;61651;45.508;12.232;2023-05-07T08:21:32;23.50;99.90
14008;DHT22;61651;45.508;12.232;2023-05-07T08:24:34;23.70;99.90
14008;DHT22;61651;45.508;12.232;2023-05-07T08:27:36;23.70;99.90
14008;DHT22;61651;45.508;12.232;2023-05-07T08:30:40;23.90;99.90
14008;DHT22;61651;45.508;12.232;2023-05-07T08:33:43;24.00;99.90
14008;DHT22;61651;45.508;12.232;2023-05-07T08:36:45;24.10;99.90
14008;DHT22;61651;45.508;12.232;2023-05-07T08:39:49;24.30;99.90
14008;DHT22;61651;45.508;12.232;2023-05-07T08:42:52;24.40;99.90
14008;DHT22;61651;45.508;12.232;2023-05-07T08:45:57;24.50;99.90
14008;DHT22;61651;45.508;12.232;2023-05-07T08:49:02;24.60;99.90
14008;DHT22;61651;45.508;12.232;2023-05-07T08:52:05;24.70;99.90
14008;DHT22;61651;45.508;12.232;2023-05-07T08:55:09;24.80;99.90
14008;DHT22;61651;45.508;12.232;2023-05-07T08:58:11;24.90;99.90
14008;DHT22;61651;45.508;12.232;2023-05-07T09:01:16;25.10;99.90
14008;DHT22;61651;45.508;12.232;2023-05-07T09:04:18;25.20;99.90
14008;DHT22;61651;45.508;12.232;2023-05-07T09:07:20;25.30;99.90
14008;DHT22;61651;45.508;12.232;2023-05-07T09:10:23;25.50;99.90
14008;DHT22;61651;45.508;12.232;2023-05-07T09:13:25;25.60;99.90
14008;DHT22;61651;45.508;12.232;2023-05-07T09:16:29;25.70;99.90
14008;DHT22;61651;45.508;12.232;2023-05-07T09:19:31;25.80;99.90
14008;DHT22;61651;45.508;12.232;2023-05-07T09:22:34;25.90;99.90
14008;DHT22;61651;45.508;12.232;2023-05-07T09:25:36;25.90;99.90
14008;DHT22;61651;45.508;12.232;2023-05-07T09:28:39;26.00;99.90
14008;DHT22;61651;45.508;12.232;2023-05-07T09:31:43;26.10;99.90
14008;DHT22;61651;45.508;12.232;2023-05-07T09:34:45;26.20;99.90
14008;DHT22;61651;45.508;12.232;2023-05-07T09:37:47;26.20;99.90
14008;DHT22;61651;45.508;12.232;2023-05-07T09:41:02;26.20;99.90
14008;DHT22;61651;45.508;12.232;2023-05-07T09:44:04;26.20;99.90
14008;DHT22;61651;45.508;12.232;2023-05-07T09:47:08;26.20;99.90
14008;DHT22;61651;45.508;12.232;2023-05-07T09:50:12;26.20;99.90
14008;DHT22;61651;45.508;12.232;2023-05-07T09:53:17;26.20;99.90
14008;DHT22;61651;45.508;12.232;2023-05-07T09:56:20;26.30;99.90
14008;DHT22;61651;45.508;12.232;2023-05-07T09:59:23;26.40;99.90
14008;DHT22;61651;45.508;12.232;2023-05-07T10:02:30;26.50;99.90
14008;DHT22;61651;45.508;12.232;2023-05-07T10:05:32;26.60;99.90
14008;DHT22;61651;45.508;12.232;2023-05-07T10:08:36;26.60;99.90
14008;DHT22;61651;45.508;12.232;2023-05-07T10:11:38;26.70;99.90
14008;DHT22;61651;45.508;12.232;2023-05-07T10:14:41;26.80;99.90
14008;DHT22;61651;45.508;12.232;2023-05-07T10:17:45;26.80;99.90
14008;DHT22;61651;45.508;12.232;2023-05-07T10:20:47;26.90;99.90
14008;DHT22;61651;45.508;12.232;2023-05-07T10:23:51;27.10;99.90
14008;DHT22;61651;45.508;12.232;2023-05-07T10:26:56;27.00;99.90
14008;DHT22;61651;45.508;12.232;2023-05-07T10:30:08;27.10;99.90
14008;DHT22;61651;45.508;12.232;2023-05-07T10:33:15;27.20;99.90
14008;DHT22;61651;45.508;12.232;2023-05-07T10:36:19;26.90;99.90
14008;DHT22;61651;45.508;12.232;2023-05-07T10:39:21;27.00;99.90
14008;DHT22;61651;45.508;12.232;2023-05-07T10:42:23;27.00;99.90
14008;DHT22;61651;45.508;12.232;2023-05-07T10:45:26;26.70;99.90
14008;DHT22;61651;45.508;12.232;2023-05-07T10:48:30;26.90;99.90
14008;DHT22;61651;45.508;12.232;2023-05-07T10:51:34;26.90;99.90
14008;DHT22;61651;45.508;12.232;2023-05-07T10:54:36;27.10;99.90
14008;DHT22;61651;45.508;12.232;2023-05-07T10:57:39;27.30;99.90
14008;DHT22;61651;45.508;12.232;2023-05-07T11:00:41;27.50;99.90
14008;DHT22;61651;45.508;12.232;2023-05-07T11:07:28;27.60;99.90
14008;DHT22;61651;45.508;12.232;2023-05-07T11:10:50;27.80;99.90
14008;DHT22;61651;45.508;12.232;2023-05-07T11:13:52;27.90;99.60
14008;DHT22;61651;45.508;12.232;2023-05-07T11:17:02;27.90;98.50
14008;DHT22;61651;45.508;12.232;2023-05-07T11:20:05;27.20;98.10
14008;DHT22;61651;45.508;12.232;2023-05-07T11:23:08;27.00;99.30
14008;DHT22;61651;45.508;12.232;2023-05-07T11:26:11;27.30;99.90
14008;DHT22;61651;45.508;12.232;2023-05-07T11:29:14;27.80;99.00
14008;DHT22;61651;45.508;12.232;2023-05-07T11:32:22;28.20;99.90
14008;DHT22;61651;45.508;12.232;2023-05-07T11:35:24;28.60;99.80
14008;DHT22;61651;45.508;12.232;2023-05-07T11:38:28;29.00;97.50
14008;DHT22;61651;45.508;12.232;2023-05-07T11:41:34;29.20;96.70
14008;DHT22;61651;45.508;12.232;2023-05-07T11:44:42;29.40;97.00
14008;DHT22;61651;45.508;12.232;2023-05-07T11:47:44;29.60;96.10
14008;DHT22;61651;45.508;12.232;2023-05-07T11:50:50;29.60;94.70
14008;DHT22;61651;45.508;12.232;2023-05-07T11:53:54;29.70;95.40
14008;DHT22;61651;45.508;12.232;2023-05-07T11:56:56;29.90;97.40
14008;DHT22;61651;45.508;12.232;2023-05-07T12:00:00;30.30;94.50
14008;DHT22;61651;45.508;12.232;2023-05-07T12:03:04;30.70;94.20
14008;DHT22;61651;45.508;12.232;2023-05-07T12:06:07;31.00;94.60
14008;DHT22;61651;45.508;12.232;2023-05-07T12:09:10;31.20;92.30
14008;DHT22;61651;45.508;12.232;2023-05-07T12:12:13;31.20;91.60
14008;DHT22;61651;45.508;12.232;2023-05-07T12:15:16;31.30;93.40
14008;DHT22;61651;45.508;12.232;2023-05-07T12:18:18;31.20;90.50
14008;DHT22;61651;45.508;12.232;2023-05-07T12:21:22;31.30;92.30
14008;DHT22;61651;45.508;12.232;2023-05-07T12:24:27;31.20;90.90
14008;DHT22;61651;45.508;12.232;2023-05-07T12:27:29;31.40;91.90
14008;DHT22;61651;45.508;12.232;2023-05-07T12:30:31;31.60;90.80
14008;DHT22;61651;45.508;12.232;2023-05-07T12:33:34;31.70;86.30
14008;DHT22;61651;45.508;12.232;2023-05-07T12:36:37;31.70;87.90
14008;DHT22;61651;45.508;12.232;2023-05-07T12:39:47;31.70;88.70
14008;DHT22;61651;45.508;12.232;2023-05-07T12:42:53;31.60;86.90
14008;DHT22;61651;45.508;12.232;2023-05-07T12:45:57;31.60;90.40
14008;DHT22;61651;45.508;12.232;2023-05-07T12:48:59;31.50;88.60
14008;DHT22;61651;45.508;12.232;2023-05-07T12:52:02;31.40;85.20
14008;DHT22;61651;45.508;12.232;2023-05-07T12:55:06;31.30;86.20
14008;DHT22;61651;45.508;12.232;2023-05-07T12:58:15;30.90;82.80
14008;DHT22;61651;45.508;12.232;2023-05-07T13:01:17;30.90;86.00
14008;DHT22;61651;45.508;12.232;2023-05-07T13:04:19;30.90;85.40
14008;DHT22;61651;45.508;12.232;2023-05-07T13:07:24;31.20;83.80
14008;DHT22;61651;45.508;12.232;2023-05-07T13:10:28;31.40;82.70
14008;DHT22;61651;45.508;12.232;2023-05-07T13:13:30;31.50;80.10
14008;DHT22;61651;45.508;12.232;2023-05-07T13:16:32;31.70;80.40
14008;DHT22;61651;45.508;12.232;2023-05-07T13:19:34;32.10;81.00
14008;DHT22;61651;45.508;12.232;2023-05-07T13:22:38;32.20;80.90
14008;DHT22;61651;45.508;12.232;2023-05-07T13:25:41;32.40;78.90
14008;DHT22;61651;45.508;12.232;2023-05-07T13:28:43;32.50;73.70
14008;DHT22;61651;45.508;12.232;2023-05-07T13:31:45;32.70;79.20
14008;DHT22;61651;45.508;12.232;2023-05-07T13:34:47;32.80;77.60
14008;DHT22;61651;45.508;12.232;2023-05-07T13:37:49;32.60;73.50
14008;DHT22;61651;45.508;12.232;2023-05-07T13:40:53;32.60;73.30
14008;DHT22;61651;45.508;12.232;2023-05-07T13:43:56;32.80;73.00
14008;DHT22;61651;45.508;12.232;2023-05-07T13:46:58;32.90;75.80
14008;DHT22;61651;45.508;12.232;2023-05-07T13:50:01;33.30;73.00
14008;DHT22;61651;45.508;12.232;2023-05-07T13:53:03;33.70;74.30
14008;DHT22;61651;45.508;12.232;2023-05-07T13:56:07;33.70;72.10
14008;DHT22;61651;45.508;12.232;2023-05-07T13:59:09;33.80;74.10
14008;DHT22;61651;45.508;12.232;2023-05-07T14:02:11;33.90;77.00
14008;DHT22;61651;45.508;12.232;2023-05-07T14:05:12;33.80;71.40
14008;DHT22;61651;45.508;12.232;2023-05-07T14:08:15;34.10;71.80
14008;DHT22;61651;45.508;12.232;2023-05-07T14:11:20;34.20;72.00
14008;DHT22;61651;45.508;12.232;2023-05-07T14:14:22;34.10;71.10
14008;DHT22;61651;45.508;12.232;2023-05-07T14:17:24;33.90;73.50
14008;DHT22;61651;45.508;12.232;2023-05-07T14:20:27;33.90;75.70
14008;DHT22;61651;45.508;12.232;2023-05-07T14:23:31;33.80;77.00
14008;DHT22;61651;45.508;12.232;2023-05-07T14:26:34;33.70;77.50
14008;DHT22;61651;45.508;12.232;2023-05-07T14:29:36;33.90;81.50
14008;DHT22;61651;45.508;12.232;2023-05-07T14:32:38;33.90;74.50
14008;DHT22;61651;45.508;12.232;2023-05-07T14:35:40;34.20;76.60
14008;DHT22;61651;45.508;12.232;2023-05-07T14:38:45;34.40;72.70
14008;DHT22;61651;45.508;12.232;2023-05-07T14:41:49;34.30;69.60
14008;DHT22;61651;45.508;12.232;2023-05-07T14:44:51;34.50;73.30
14008;DHT22;61651;45.508;12.232;2023-05-07T14:47:53;34.40;68.70
14008;DHT22;61651;45.508;12.232;2023-05-07T14:50:56;34.20;68.20
14008;DHT22;61651;45.508;12.232;2023-05-07T14:53:58;33.90;67.80
14008;DHT22;61651;45.508;12.232;2023-05-07T14:57:02;34.00;69.30
14008;DHT22;61651;45.508;12.232;2023-05-07T15:00:05;34.10;74.00
14008;DHT22;61651;45.508;12.232;2023-05-07T15:03:09;34.40;76.30
14008;DHT22;61651;45.508;12.232;2023-05-07T15:06:12;34.50;75.80
14008;DHT22;61651;45.508;12.232;2023-05-07T15:09:13;34.50;74.90
14008;DHT22;61651;45.508;12.232;2023-05-07T15:12:17;34.50;75.40
14008;DHT22;61651;45.508;12.232;2023-05-07T15:15:19;34.20;72.80
14008;DHT22;61651;45.508;12.232;2023-05-07T15:18:21;34.10;74.90
14008;DHT22;61651;45.508;12.232;2023-05-07T15:21:23;34.30;77.40
14008;DHT22;61651;45.508;12.232;2023-05-07T15:24:26;34.40;77.20
14008;DHT22;61651;45.508;12.232;2023-05-07T15:27:30;34.30;74.00
14008;DHT22;61651;45.508;12.232;2023-05-07T15:30:32;33.70;75.30
14008;DHT22;61651;45.508;12.232;2023-05-07T15:33:34;33.40;75.80
14008;DHT22;61651;45.508;12.232;2023-05-07T15:36:36;33.50;78.20
14008;DHT22;61651;45.508;12.232;2023-05-07T15:39:38;33.50;77.00
14008;DHT22;61651;45.508;12.232;2023-05-07T15:42:42;32.90;77.00
14008;DHT22;61651;45.508;12.232;2023-05-07T15:45:45;32.80;78.30
14008;DHT22;61651;45.508;12.232;2023-05-07T15:48:47;32.50;77.90
14008;DHT22;61651;45.508;12.232;2023-05-07T15:51:49;32.30;79.10
14008;DHT22;61651;45.508;12.232;2023-05-07T15:54:54;31.90;77.50
14008;DHT22;61651;45.508;12.232;2023-05-07T15:57:58;32.00;78.90
14008;DHT22;61651;45.508;12.232;2023-05-07T16:01:00;31.80;79.40
14008;DHT22;61651;45.508;12.232;2023-05-07T16:04:04;31.80;81.00
14008;DHT22;61651;45.508;12.232;2023-05-07T16:07:06;31.50;82.10
14008;DHT22;61651;45.508;12.232;2023-05-07T16:10:09;31.30;82.30
14008;DHT22;61651;45.508;12.232;2023-05-07T16:13:13;30.90;78.90
14008;DHT22;61651;45.508;12.232;2023-05-07T16:16:18;30.70;82.00
14008;DHT22;61651;45.508;12.232;2023-05-07T16:19:20;30.40;82.50
14008;DHT22;61651;45.508;12.232;2023-05-07T16:22:23;30.10;83.60
14008;DHT22;61651;45.508;12.232;2023-05-07T16:25:26;29.60;84.30
14008;DHT22;61651;45.508;12.232;2023-05-07T16:28:30;29.00;80.80
14008;DHT22;61651;45.508;12.232;2023-05-07T16:31:32;28.70;83.60
14008;DHT22;61651;45.508;12.232;2023-05-07T16:34:34;28.40;82.60
14008;DHT22;61651;45.508;12.232;2023-05-07T16:37:39;28.10;83.20
14008;DHT22;61651;45.508;12.232;2023-05-07T16:40:41;27.80;83.70
14008;DHT22;61651;45.508;12.232;2023-05-07T16:43:45;27.80;84.30
14008;DHT22;61651;45.508;12.232;2023-05-07T16:46:47;27.70;85.90
14008;DHT22;61651;45.508;12.232;2023-05-07T16:49:49;27.70;86.80
14008;DHT22;61651;45.508;12.232;2023-05-07T16:52:51;27.70;87.10
14008;DHT22;61651;45.508;12.232;2023-05-07T16:55:53;27.60;90.10
14008;DHT22;61651;45.508;12.232;2023-05-07T16:58:57;27.80;90.60
14008;DHT22;61651;45.508;12.232;2023-05-07T17:01:59;27.80;91.20
14008;DHT22;61651;45.508;12.232;2023-05-07T17:05:01;27.90;90.80
14008;DHT22;61651;45.508;12.232;2023-05-07T17:08:04;27.80;89.80
14008;DHT22;61651;45.508;12.232;2023-05-07T17:11:06;27.70;89.50
14008;DHT22;61651;45.508;12.232;2023-05-07T17:14:09;27.60;88.80
14008;DHT22;61651;45.508;12.232;2023-05-07T17:17:11;27.50;87.70
14008;DHT22;61651;45.508;12.232;2023-05-07T17:20:14;27.40;87.30
14008;DHT22;61651;45.508;12.232;2023-05-07T17:23:16;27.30;87.60
14008;DHT22;61651;45.508;12.232;2023-05-07T17:26:17;27.20;87.60
14008;DHT22;61651;45.508;12.232;2023-05-07T17:29:22;27.20;88.80
14008;DHT22;61651;45.508;12.232;2023-05-07T17:32:24;27.10;89.00
14008;DHT22;61651;45.508;12.232;2023-05-07T17:35:26;27.00;89.70
14008;DHT22;61651;45.508;12.232;2023-05-07T17:38:28;26.90;90.30
14008;DHT22;61651;45.508;12.232;2023-05-07T17:41:30;26.80;90.90
14008;DHT22;61651;45.508;12.232;2023-05-07T17:44:34;26.70;91.20
14008;DHT22;61651;45.508;12.232;2023-05-07T17:47:36;26.60;92.00
14008;DHT22;61651;45.508;12.232;2023-05-07T17:50:38;26.50;92.50
14008;DHT22;61651;45.508;12.232;2023-05-07T17:53:39;26.40;93.50
14008;DHT22;61651;45.508;12.232;2023-05-07T17:56:41;26.30;93.80
14008;DHT22;61651;45.508;12.232;2023-05-07T17:59:45;26.20;94.50
14008;DHT22;61651;45.508;12.232;2023-05-07T18:02:47;26.10;95.10
14008;DHT22;61651;45.508;12.232;2023-05-07T18:05:51;26.00;95.60
14008;DHT22;61651;45.508;12.232;2023-05-07T18:08:54;25.90;96.10
14008;DHT22;61651;45.508;12.232;2023-05-07T18:11:56;25.80;96.80
14008;DHT22;61651;45.508;12.232;2023-05-07T18:14:59;25.70;97.30
14008;DHT22;61651;45.508;12.232;2023-05-07T18:18:01;25.70;97.80
14008;DHT22;61651;45.508;12.232;2023-05-07T18:21:03;25.70;97.90
14008;DHT22;61651;45.508;12.232;2023-05-07T18:24:06;25.60;98.00
14008;DHT22;61651;45.508;12.232;2023-05-07T18:27:08;25.50;98.00
14008;DHT22;61651;45.508;12.232;2023-05-07T18:30:12;25.40;97.40
14008;DHT22;61651;45.508;12.232;2023-05-07T18:33:14;25.30;96.80
14008;DHT22;61651;45.508;12.232;2023-05-07T18:36:16;25.30;96.30
14008;DHT22;61651;45.508;12.232;2023-05-07T18:39:18;25.20;96.20
14008;DHT22;61651;45.508;12.232;2023-05-07T18:42:21;25.10;96.10
14008;DHT22;61651;45.508;12.232;2023-05-07T18:45:24;25.10;96.20
14008;DHT22;61651;45.508;12.232;2023-05-07T18:48:26;25.00;96.60
14008;DHT22;61651;45.508;12.232;2023-05-07T18:51:28;25.00;96.90
14008;DHT22;61651;45.508;12.232;2023-05-07T18:54:30;24.90;97.50
14008;DHT22;61651;45.508;12.232;2023-05-07T18:57:32;24.90;97.80
14008;DHT22;61651;45.508;12.232;2023-05-07T19:00:36;24.90;98.30
14008;DHT22;61651;45.508;12.232;2023-05-07T19:03:38;24.90;98.70